sensor_id;sensor_type;location;lat;lon;timestamp;temperature;humidity
11609;DHT22;5860;52.018;8.536;2023-05-02T00:02:27;12.40;99.90
11609;DHT22;5860;52.018;8.536;2023-05-02T00:04:55;12.30;99.90
11609;DHT22;5860;52.018;8.536;2023-05-02T00:07:28;12.40;99.90
11609;DHT22;5860;52.018;8.536;2023-05-02T00:09:55;12.40;99.90
11609;DHT22;5860;52.018;8.536;2023-05-02T00:12:22;12.30;99.90
11609;DHT22;5860;52.018;8.536;2023-05-02T00:14:49;12.40;99.90
11609;DHT22;5860;52.018;8.536;2023-05-02T00:17:19;12.50;99.90
11609;DHT22;5860;52.018;8.536;2023-05-02T00:19:47;12.50;99.90
11609;DHT22;5860;52.018;8.536;2023-05-02T00:22:14;12.50;99.90
11609;DHT22;5860;52.018;8.536;2023-05-02T00:24:40;12.40;99.90
11609;DHT22;5860;52.018;8.536;2023-05-02T00:27:07;12.40;99.90
11609;DHT22;5860;52.018;8.536;2023-05-02T00:29:37;12.40;99.90
11609;DHT22;5860;52.018;8.536;2023-05-02T00:32:05;12.30;99.90
11609;DHT22;5860;52.018;8.536;2023-05-02T00:34:34;12.30;99.90
11609;DHT22;5860;52.018;8.536;2023-05-02T00:37:01;12.30;99.90
11609;DHT22;5860;52.018;8.536;2023-05-02T00:39:28;12.20;99.90
11609;DHT22;5860;52.018;8.536;2023-05-02T00:41:59;12.10;99.90
11609;DHT22;5860;52.018;8.536;2023-05-02T00:44:26;12.00;99.90
11609;DHT22;5860;52.018;8.536;2023-05-02T00:46:57;12.00;99.90
11609;DHT22;5860;52.018;8.536;2023-05-02T00:49:24;12.00;99.90
11609;DHT22;5860;52.018;8.536;2023-05-02T00:51:53;12.00;99.90
11609;DHT22;5860;52.018;8.536;2023-05-02T00:54:20;12.00;99.90
11609;DHT22;5860;52.018;8.536;2023-05-02T00:56:47;12.00;99.90
11609;DHT22;5860;52.018;8.536;2023-05-02T00:59:15;11.90;99.90
11609;DHT22;5860;52.018;8.536;2023-05-02T01:12:42;11.70;99.90
11609;DHT22;5860;52.018;8.536;2023-05-02T01:15:23;11.80;99.90
11609;DHT22;5860;52.018;8.536;2023-05-02T01:17:53;11.80;99.90
11609;DHT22;5860;52.018;8.536;2023-05-02T01:20:24;11.80;99.90
11609;DHT22;5860;52.018;8.536;2023-05-02T01:22:59;11.70;99.90
11609;DHT22;5860;52.018;8.536;2023-05-02T01:30:57;11.70;99.90
11609;DHT22;5860;52.018;8.536;2023-05-02T01:33:27;11.70;99.90
11609;DHT22;5860;52.018;8.536;2023-05-02T01:35:55;11.70;99.90
11609;DHT22;5860;52.018;8.536;2023-05-02T01:38:23;11.60;99.90
11609;DHT22;5860;52.018;8.536;2023-05-02T01:40:56;11.60;99.90
11609;DHT22;5860;52.018;8.536;2023-05-02T01:43:25;11.60;99.90
11609;DHT22;5860;52.018;8.536;2023-05-02T01:45:53;11.60;99.90
11609;DHT22;5860;52.018;8.536;2023-05-02T01:48:22;11.60;99.90
11609;DHT22;5860;52.018;8.536;2023-05-02T01:50:55;11.60;99.90
11609;DHT22;5860;52.018;8.536;2023-05-02T01:53:27;11.60;99.90
11609;DHT22;5860;52.018;8.536;2023-05-02T01:55:57;11.60;99.90
11609;DHT22;5860;52.018;8.536;2023-05-02T01:58:27;11.50;99.90
11609;DHT22;5860;52.018;8.536;2023-05-02T02:00:57;11.50;99.90
11609;DHT22;5860;52.018;8.536;2023-05-02T02:03:26;11.50;99.90
11609;DHT22;5860;52.018;8.536;2023-05-02T02:05:55;11.40;99.90
11609;DHT22;5860;52.018;8.536;2023-05-02T02:08:24;11.40;99.90
11609;DHT22;5860;52.018;8.536;2023-05-02T02:10:59;11.40;99.90
11609;DHT22;5860;52.018;8.536;2023-05-02T02:13:38;11.40;99.90
11609;DHT22;5860;52.018;8.536;2023-05-02T02:16:11;11.40;99.90
11609;DHT22;5860;52.018;8.536;2023-05-02T02:18:42;11.40;99.90
11609;DHT22;5860;52.018;8.536;2023-05-02T02:21:16;11.30;99.90
11609;DHT22;5860;52.018;8.536;2023-05-02T02:23:47;11.30;99.90
11609;DHT22;5860;52.018;8.536;2023-05-02T02:26:19;11.40;99.90
11609;DHT22;5860;52.018;8.536;2023-05-02T02:28:49;11.30;99.90
11609;DHT22;5860;52.018;8.536;2023-05-02T02:31:17;11.30;99.90
11609;DHT22;5860;52.018;8.536;2023-05-02T02:33:47;11.30;99.90
11609;DHT22;5860;52.018;8.536;2023-05-02T02:36:23;11.30;99.90
11609;DHT22;5860;52.018;8.536;2023-05-02T02:41:30;11.30;99.90
11609;DHT22;5860;52.018;8.536;2023-05-02T02:44:21;11.50;99.90
11609;DHT22;5860;52.018;8.536;2023-05-02T02:52:26;11.20;99.90
11609;DHT22;5860;52.018;8.536;2023-05-02T02:54:59;11.20;99.90
11609;DHT22;5860;52.018;8.536;2023-05-02T02:58:42;11.20;99.90
11609;DHT22;5860;52.018;8.536;2023-05-02T03:00:46;11.20;99.90
11609;DHT22;5860;52.018;8.536;2023-05-02T03:03:14;11.20;99.90
11609;DHT22;5860;52.018;8.536;2023-05-02T03:05:47;11.20;99.90
11609;DHT22;5860;52.018;8.536;2023-05-02T03:08:14;11.10;99.90
11609;DHT22;5860;52.018;8.536;2023-05-02T03:10:42;11.10;99.90
11609;DHT22;5860;52.018;8.536;2023-05-02T03:13:10;11.10;99.90
11609;DHT22;5860;52.018;8.536;2023-05-02T03:18:24;11.00;99.90
11609;DHT22;5860;52.018;8.536;2023-05-02T03:20:52;11.00;99.90
11609;DHT22;5860;52.018;8.536;2023-05-02T03:23:19;10.90;99.90
11609;DHT22;5860;52.018;8.536;2023-05-02T03:25:52;11.00;99.90
11609;DHT22;5860;52.018;8.536;2023-05-02T03:28:18;11.00;99.90
11609;DHT22;5860;52.018;8.536;2023-05-02T03:30:47;11.00;99.90
11609;DHT22;5860;52.018;8.536;2023-05-02T03:33:14;11.00;99.90
11609;DHT22;5860;52.018;8.536;2023-05-02T03:35:42;10.90;99.90
11609;DHT22;5860;52.018;8.536;2023-05-02T03:38:09;10.90;99.90
11609;DHT22;5860;52.018;8.536;2023-05-02T03:40:36;11.00;99.90
11609;DHT22;5860;52.018;8.536;2023-05-02T03:43:03;11.00;99.90
11609;DHT22;5860;52.018;8.536;2023-05-02T03:45:30;11.00;99.90
11609;DHT22;5860;52.018;8.536;2023-05-02T03:47:57;11.00;99.90
11609;DHT22;5860;52.018;8.536;2023-05-02T03:50:24;10.90;99.90
11609;DHT22;5860;52.018;8.536;2023-05-02T03:52:51;10.90;99.90
11609;DHT22;5860;52.018;8.536;2023-05-02T03:55:19;10.80;99.90
11609;DHT22;5860;52.018;8.536;2023-05-02T03:57:47;10.80;99.90
11609;DHT22;5860;52.018;8.536;2023-05-02T04:00:14;10.80;99.90
11609;DHT22;5860;52.018;8.536;2023-05-02T04:02:41;10.80;99.90
11609;DHT22;5860;52.018;8.536;2023-05-02T04:05:12;10.80;99.90
11609;DHT22;5860;52.018;8.536;2023-05-02T04:07:39;10.70;99.90
11609;DHT22;5860;52.018;8.536;2023-05-02T04:10:06;10.80;99.90
11609;DHT22;5860;52.018;8.536;2023-05-02T04:12:41;10.90;99.90
11609;DHT22;5860;52.018;8.536;2023-05-02T04:15:10;10.80;99.90
11609;DHT22;5860;52.018;8.536;2023-05-02T04:17:37;10.90;99.90
11609;DHT22;5860;52.018;8.536;2023-05-02T04:20:08;10.70;99.90
11609;DHT22;5860;52.018;8.536;2023-05-02T04:22:38;10.70;99.90
11609;DHT22;5860;52.018;8.536;2023-05-02T04:25:06;10.70;99.90
11609;DHT22;5860;52.018;8.536;2023-05-02T04:27:33;10.70;99.90
11609;DHT22;5860;52.018;8.536;2023-05-02T04:30:01;10.60;99.90
11609;DHT22;5860;52.018;8.536;2023-05-02T04:32:29;10.60;99.90
11609;DHT22;5860;52.018;8.536;2023-05-02T04:34:56;10.60;99.90
11609;DHT22;5860;52.018;8.536;2023-05-02T04:37:23;10.70;99.90
11609;DHT22;5860;52.018;8.536;2023-05-02T04:39:54;10.60;99.90
11609;DHT22;5860;52.018;8.536;2023-05-02T04:42:24;10.60;99.90
11609;DHT22;5860;52.018;8.536;2023-05-02T04:44:51;10.50;99.90
11609;DHT22;5860;52.018;8.536;2023-05-02T04:47:18;10.50;99.90
11609;DHT22;5860;52.018;8.536;2023-05-02T04:49:45;10.50;99.90
11609;DHT22;5860;52.018;8.536;2023-05-02T04:52:12;10.40;99.90
11609;DHT22;5860;52.018;8.536;2023-05-02T04:54:40;10.40;99.90
11609;DHT22;5860;52.018;8.536;2023-05-02T04:57:07;10.50;99.90
11609;DHT22;5860;52.018;8.536;2023-05-02T04:59:36;10.50;99.90
11609;DHT22;5860;52.018;8.536;2023-05-02T05:02:04;10.40;99.90
11609;DHT22;5860;52.018;8.536;2023-05-02T05:04:31;10.50;99.90
11609;DHT22;5860;52.018;8.536;2023-05-02T05:06:58;10.50;99.90
11609;DHT22;5860;52.018;8.536;2023-05-02T05:09:25;10.50;99.90
11609;DHT22;5860;52.018;8.536;2023-05-02T05:11:52;10.60;99.90
11609;DHT22;5860;52.018;8.536;2023-05-02T05:14:19;10.60;99.90
11609;DHT22;5860;52.018;8.536;2023-05-02T05:16:47;10.60;99.90
11609;DHT22;5860;52.018;8.536;2023-05-02T05:19:16;10.60;99.90
11609;DHT22;5860;52.018;8.536;2023-05-02T05:21:43;10.60;99.90
11609;DHT22;5860;52.018;8.536;2023-05-02T05:24:10;10.50;99.90
11609;DHT22;5860;52.018;8.536;2023-05-02T05:26:38;10.60;99.90
11609;DHT22;5860;52.018;8.536;2023-05-02T05:29:05;10.60;99.90
11609;DHT22;5860;52.018;8.536;2023-05-02T05:31:34;10.50;99.90
11609;DHT22;5860;52.018;8.536;2023-05-02T05:34:01;10.40;99.90
11609;DHT22;5860;52.018;8.536;2023-05-02T05:36:30;10.30;99.90
11609;DHT22;5860;52.018;8.536;2023-05-02T05:39:00;10.30;99.90
11609;DHT22;5860;52.018;8.536;2023-05-02T05:41:27;10.30;99.90
11609;DHT22;5860;52.018;8.536;2023-05-02T05:43:53;10.30;99.90
11609;DHT22;5860;52.018;8.536;2023-05-02T05:46:24;10.30;99.90
11609;DHT22;5860;52.018;8.536;2023-05-02T05:48:51;10.30;99.90
11609;DHT22;5860;52.018;8.536;2023-05-02T05:51:19;10.30;99.90
11609;DHT22;5860;52.018;8.536;2023-05-02T05:53:47;10.20;99.90
11609;DHT22;5860;52.018;8.536;2023-05-02T05:56:15;10.30;99.90
11609;DHT22;5860;52.018;8.536;2023-05-02T05:58:42;10.30;99.90
11609;DHT22;5860;52.018;8.536;2023-05-02T06:01:10;10.30;99.90
11609;DHT22;5860;52.018;8.536;2023-05-02T06:03:37;10.30;99.90
11609;DHT22;5860;52.018;8.536;2023-05-02T06:06:04;10.20;99.90
11609;DHT22;5860;52.018;8.536;2023-05-02T06:08:32;9.90;99.90
11609;DHT22;5860;52.018;8.536;2023-05-02T06:11:00;9.10;99.90
11609;DHT22;5860;52.018;8.536;2023-05-02T06:13:27;8.70;99.90
11609;DHT22;5860;52.018;8.536;2023-05-02T06:15:54;8.60;99.90
11609;DHT22;5860;52.018;8.536;2023-05-02T06:18:20;8.50;99.90
11609;DHT22;5860;52.018;8.536;2023-05-02T06:20:47;8.50;99.90
11609;DHT22;5860;52.018;8.536;2023-05-02T06:23:14;8.40;99.90
11609;DHT22;5860;52.018;8.536;2023-05-02T06:25:41;8.30;99.90
11609;DHT22;5860;52.018;8.536;2023-05-02T06:28:08;8.30;99.90
11609;DHT22;5860;52.018;8.536;2023-05-02T06:30:35;8.30;99.90
11609;DHT22;5860;52.018;8.536;2023-05-02T06:33:05;8.30;99.90
11609;DHT22;5860;52.018;8.536;2023-05-02T06:35:32;8.30;99.90
11609;DHT22;5860;52.018;8.536;2023-05-02T06:37:59;8.30;99.90
11609;DHT22;5860;52.018;8.536;2023-05-02T06:40:26;8.30;99.90
11609;DHT22;5860;52.018;8.536;2023-05-02T06:42:55;8.10;99.90
11609;DHT22;5860;52.018;8.536;2023-05-02T06:45:22;8.10;99.90
11609;DHT22;5860;52.018;8.536;2023-05-02T06:47:49;8.00;99.90
11609;DHT22;5860;52.018;8.536;2023-05-02T06:50:17;8.00;99.90
11609;DHT22;5860;52.018;8.536;2023-05-02T06:52:44;8.00;99.90
11609;DHT22;5860;52.018;8.536;2023-05-02T06:55:11;8.00;99.90
11609;DHT22;5860;52.018;8.536;2023-05-02T06:57:38;8.00;99.90
11609;DHT22;5860;52.018;8.536;2023-05-02T07:00:05;8.10;99.90
11609;DHT22;5860;52.018;8.536;2023-05-02T07:02:32;8.00;99.90
11609;DHT22;5860;52.018;8.536;2023-05-02T07:04:59;8.10;99.90
11609;DHT22;5860;52.018;8.536;2023-05-02T07:07:29;8.00;99.90
11609;DHT22;5860;52.018;8.536;2023-05-02T07:09:56;8.00;99.90
11609;DHT22;5860;52.018;8.536;2023-05-02T07:12:24;8.10;99.90
11609;DHT22;5860;52.018;8.536;2023-05-02T07:14:51;8.10;99.90
11609;DHT22;5860;52.018;8.536;2023-05-02T07:17:18;8.10;99.90
11609;DHT22;5860;52.018;8.536;2023-05-02T07:19:45;8.30;99.90
11609;DHT22;5860;52.018;8.536;2023-05-02T07:22:12;8.40;99.90
11609;DHT22;5860;52.018;8.536;2023-05-02T07:24:40;8.40;99.90
11609;DHT22;5860;52.018;8.536;2023-05-02T07:27:08;8.50;99.90
11609;DHT22;5860;52.018;8.536;2023-05-02T07:29:36;8.60;99.90
11609;DHT22;5860;52.018;8.536;2023-05-02T07:32:03;8.70;99.90
11609;DHT22;5860;52.018;8.536;2023-05-02T07:34:31;8.70;99.90
11609;DHT22;5860;52.018;8.536;2023-05-02T07:36:58;8.80;99.90
11609;DHT22;5860;52.018;8.536;2023-05-02T07:39:25;8.90;99.90
11609;DHT22;5860;52.018;8.536;2023-05-02T07:41:52;9.00;99.90
11609;DHT22;5860;52.018;8.536;2023-05-02T07:44:20;9.10;99.90
11609;DHT22;5860;52.018;8.536;2023-05-02T07:46:48;9.10;99.90
11609;DHT22;5860;52.018;8.536;2023-05-02T07:49:15;9.10;99.90
11609;DHT22;5860;52.018;8.536;2023-05-02T07:51:42;9.10;99.90
11609;DHT22;5860;52.018;8.536;2023-05-02T07:54:18;9.10;99.90
11609;DHT22;5860;52.018;8.536;2023-05-02T07:56:45;9.10;99.90
11609;DHT22;5860;52.018;8.536;2023-05-02T07:59:13;9.10;99.90
11609;DHT22;5860;52.018;8.536;2023-05-02T08:01:40;9.10;99.90
11609;DHT22;5860;52.018;8.536;2023-05-02T08:04:08;9.00;99.90
11609;DHT22;5860;52.018;8.536;2023-05-02T08:06:39;9.00;99.90
11609;DHT22;5860;52.018;8.536;2023-05-02T08:09:08;8.90;99.90
11609;DHT22;5860;52.018;8.536;2023-05-02T08:11:35;8.90;99.90
11609;DHT22;5860;52.018;8.536;2023-05-02T08:14:02;9.00;99.90
11609;DHT22;5860;52.018;8.536;2023-05-02T08:16:29;8.80;99.90
11609;DHT22;5860;52.018;8.536;2023-05-02T08:18:55;8.80;99.90
11609;DHT22;5860;52.018;8.536;2023-05-02T08:21:26;8.70;99.90
11609;DHT22;5860;52.018;8.536;2023-05-02T08:23:57;8.80;99.90
11609;DHT22;5860;52.018;8.536;2023-05-02T08:26:26;8.90;99.90
11609;DHT22;5860;52.018;8.536;2023-05-02T08:28:54;9.10;99.90
11609;DHT22;5860;52.018;8.536;2023-05-02T08:31:21;8.90;99.90
11609;DHT22;5860;52.018;8.536;2023-05-02T08:33:48;8.80;99.90
11609;DHT22;5860;52.018;8.536;2023-05-02T08:36:16;8.70;99.90
11609;DHT22;5860;52.018;8.536;2023-05-02T08:38:44;8.90;99.90
11609;DHT22;5860;52.018;8.536;2023-05-02T08:41:16;8.70;99.90
11609;DHT22;5860;52.018;8.536;2023-05-02T08:43:47;8.60;99.90
11609;DHT22;5860;52.018;8.536;2023-05-02T08:46:16;8.50;99.90
11609;DHT22;5860;52.018;8.536;2023-05-02T08:48:45;8.70;99.90
11609;DHT22;5860;52.018;8.536;2023-05-02T08:51:16;8.70;99.90
11609;DHT22;5860;52.018;8.536;2023-05-02T08:53:48;8.60;99.90
11609;DHT22;5860;52.018;8.536;2023-05-02T08:56:17;8.60;99.90
11609;DHT22;5860;52.018;8.536;2023-05-02T08:58:45;8.70;99.90
11609;DHT22;5860;52.018;8.536;2023-05-02T09:01:17;8.80;99.90
11609;DHT22;5860;52.018;8.536;2023-05-02T09:03:46;8.90;99.90
11609;DHT22;5860;52.018;8.536;2023-05-02T09:06:19;9.00;99.90
11609;DHT22;5860;52.018;8.536;2023-05-02T09:08:49;9.30;99.90
11609;DHT22;5860;52.018;8.536;2023-05-02T09:11:21;9.40;99.90
11609;DHT22;5860;52.018;8.536;2023-05-02T09:13:49;9.40;99.90
11609;DHT22;5860;52.018;8.536;2023-05-02T09:16:22;9.50;99.90
11609;DHT22;5860;52.018;8.536;2023-05-02T09:18:52;9.60;99.90
11609;DHT22;5860;52.018;8.536;2023-05-02T09:21:26;10.00;99.90
11609;DHT22;5860;52.018;8.536;2023-05-02T09:24:01;9.90;99.90
11609;DHT22;5860;52.018;8.536;2023-05-02T09:26:30;10.10;99.90
11609;DHT22;5860;52.018;8.536;2023-05-02T09:29:01;9.90;99.90
11609;DHT22;5860;52.018;8.536;2023-05-02T09:31:33;9.70;99.90
11609;DHT22;5860;52.018;8.536;2023-05-02T09:34:15;10.00;99.90
11609;DHT22;5860;52.018;8.536;2023-05-02T09:36:48;10.00;99.90
11609;DHT22;5860;52.018;8.536;2023-05-02T09:39:25;10.00;99.90
11609;DHT22;5860;52.018;8.536;2023-05-02T09:41:55;10.20;99.90
11609;DHT22;5860;52.018;8.536;2023-05-02T09:44:25;10.30;99.90
11609;DHT22;5860;52.018;8.536;2023-05-02T09:46:54;10.30;99.90
11609;DHT22;5860;52.018;8.536;2023-05-02T09:49:42;10.40;99.90
11609;DHT22;5860;52.018;8.536;2023-05-02T09:52:14;10.50;99.90
11609;DHT22;5860;52.018;8.536;2023-05-02T09:54:42;10.10;99.90
11609;DHT22;5860;52.018;8.536;2023-05-02T09:57:09;10.00;99.90
11609;DHT22;5860;52.018;8.536;2023-05-02T09:59:38;10.30;99.90
11609;DHT22;5860;52.018;8.536;2023-05-02T10:02:07;10.60;99.90
11609;DHT22;5860;52.018;8.536;2023-05-02T10:04:37;10.30;99.90
11609;DHT22;5860;52.018;8.536;2023-05-02T10:07:06;10.40;99.90
11609;DHT22;5860;52.018;8.536;2023-05-02T10:09:42;10.90;99.90
11609;DHT22;5860;52.018;8.536;2023-05-02T10:12:09;11.00;99.90
11609;DHT22;5860;52.018;8.536;2023-05-02T10:14:43;10.80;99.90
11609;DHT22;5860;52.018;8.536;2023-05-02T10:17:19;10.50;99.90
11609;DHT22;5860;52.018;8.536;2023-05-02T10:20:00;10.00;99.90
11609;DHT22;5860;52.018;8.536;2023-05-02T10:22:30;9.50;99.90
11609;DHT22;5860;52.018;8.536;2023-05-02T10:24:59;9.60;99.90
11609;DHT22;5860;52.018;8.536;2023-05-02T10:27:30;9.40;99.90
11609;DHT22;5860;52.018;8.536;2023-05-02T10:29:59;9.50;99.90
11609;DHT22;5860;52.018;8.536;2023-05-02T10:32:27;9.60;99.90
11609;DHT22;5860;52.018;8.536;2023-05-02T10:35:02;9.70;99.90
11609;DHT22;5860;52.018;8.536;2023-05-02T10:37:31;9.90;99.90
11609;DHT22;5860;52.018;8.536;2023-05-02T10:39:59;9.90;99.90
11609;DHT22;5860;52.018;8.536;2023-05-02T10:42:27;9.80;99.90
11609;DHT22;5860;52.018;8.536;2023-05-02T10:44:55;9.70;99.90
11609;DHT22;5860;52.018;8.536;2023-05-02T10:47:24;9.90;99.90
11609;DHT22;5860;52.018;8.536;2023-05-02T10:50:00;10.40;99.90
11609;DHT22;5860;52.018;8.536;2023-05-02T10:52:37;11.00;99.90
11609;DHT22;5860;52.018;8.536;2023-05-02T10:55:22;11.10;99.90
11609;DHT22;5860;52.018;8.536;2023-05-02T11:00:30;10.30;99.90
11609;DHT22;5860;52.018;8.536;2023-05-02T11:02:59;10.40;99.90
11609;DHT22;5860;52.018;8.536;2023-05-02T11:05:26;10.80;99.90
11609;DHT22;5860;52.018;8.536;2023-05-02T11:10:46;11.90;99.90
11609;DHT22;5860;52.018;8.536;2023-05-02T11:13:13;11.50;99.90
11609;DHT22;5860;52.018;8.536;2023-05-02T11:18:12;12.30;99.90
11609;DHT22;5860;52.018;8.536;2023-05-02T11:20:43;11.80;99.90
11609;DHT22;5860;52.018;8.536;2023-05-02T11:25:43;11.60;99.90
11609;DHT22;5860;52.018;8.536;2023-05-02T11:33:59;11.90;99.90
11609;DHT22;5860;52.018;8.536;2023-05-02T11:36:34;11.90;99.90
11609;DHT22;5860;52.018;8.536;2023-05-02T11:39:03;11.70;99.90
11609;DHT22;5860;52.018;8.536;2023-05-02T11:41:39;11.50;99.90
11609;DHT22;5860;52.018;8.536;2023-05-02T11:44:06;11.70;99.90
11609;DHT22;5860;52.018;8.536;2023-05-02T11:46:39;11.30;99.90
11609;DHT22;5860;52.018;8.536;2023-05-02T11:49:07;11.20;99.90
11609;DHT22;5860;52.018;8.536;2023-05-02T11:51:36;11.20;99.90
11609;DHT22;5860;52.018;8.536;2023-05-02T11:54:03;11.00;99.90
11609;DHT22;5860;52.018;8.536;2023-05-02T11:56:33;10.90;99.90
11609;DHT22;5860;52.018;8.536;2023-05-02T11:59:01;11.00;99.90
11609;DHT22;5860;52.018;8.536;2023-05-02T12:01:29;10.80;99.90
11609;DHT22;5860;52.018;8.536;2023-05-02T12:04:04;11.30;99.90
11609;DHT22;5860;52.018;8.536;2023-05-02T12:06:34;11.20;99.90
11609;DHT22;5860;52.018;8.536;2023-05-02T12:09:06;11.20;99.90
11609;DHT22;5860;52.018;8.536;2023-05-02T12:11:35;11.10;99.90
11609;DHT22;5860;52.018;8.536;2023-05-02T12:14:04;11.30;99.90
11609;DHT22;5860;52.018;8.536;2023-05-02T12:16:32;11.30;99.90
11609;DHT22;5860;52.018;8.536;2023-05-02T12:19:00;11.30;99.90
11609;DHT22;5860;52.018;8.536;2023-05-02T12:21:28;11.40;99.90
11609;DHT22;5860;52.018;8.536;2023-05-02T12:24:04;11.10;99.90
11609;DHT22;5860;52.018;8.536;2023-05-02T12:26:31;11.10;99.90
11609;DHT22;5860;52.018;8.536;2023-05-02T12:28:59;10.90;99.90
11609;DHT22;5860;52.018;8.536;2023-05-02T12:31:28;10.90;99.90
11609;DHT22;5860;52.018;8.536;2023-05-02T12:33:58;11.30;99.90
11609;DHT22;5860;52.018;8.536;2023-05-02T12:36:27;10.90;99.90
11609;DHT22;5860;52.018;8.536;2023-05-02T12:38:56;10.80;99.90
11609;DHT22;5860;52.018;8.536;2023-05-02T12:41:37;11.00;99.90
11609;DHT22;5860;52.018;8.536;2023-05-02T12:44:05;11.30;99.90
11609;DHT22;5860;52.018;8.536;2023-05-02T12:46:35;11.20;99.90
11609;DHT22;5860;52.018;8.536;2023-05-02T12:49:03;11.20;99.90
11609;DHT22;5860;52.018;8.536;2023-05-02T12:51:31;11.40;99.90
11609;DHT22;5860;52.018;8.536;2023-05-02T12:54:00;11.30;99.90
11609;DHT22;5860;52.018;8.536;2023-05-02T12:56:28;11.20;99.90
11609;DHT22;5860;52.018;8.536;2023-05-02T12:58:58;11.10;99.90
11609;DHT22;5860;52.018;8.536;2023-05-02T13:01:27;11.10;99.90
11609;DHT22;5860;52.018;8.536;2023-05-02T13:03:54;11.30;99.90
11609;DHT22;5860;52.018;8.536;2023-05-02T13:06:21;11.00;99.90
11609;DHT22;5860;52.018;8.536;2023-05-02T13:08:48;10.90;99.90
11609;DHT22;5860;52.018;8.536;2023-05-02T13:11:15;10.80;99.90
11609;DHT22;5860;52.018;8.536;2023-05-02T13:13:43;10.50;99.90
11609;DHT22;5860;52.018;8.536;2023-05-02T13:16:10;10.90;99.90
11609;DHT22;5860;52.018;8.536;2023-05-02T13:18:37;10.90;99.90
11609;DHT22;5860;52.018;8.536;2023-05-02T13:21:04;11.20;99.90
11609;DHT22;5860;52.018;8.536;2023-05-02T13:23:31;11.70;99.90
11609;DHT22;5860;52.018;8.536;2023-05-02T13:25:58;12.20;99.90
11609;DHT22;5860;52.018;8.536;2023-05-02T13:28:26;12.40;99.90
11609;DHT22;5860;52.018;8.536;2023-05-02T13:30:54;12.30;99.90
11609;DHT22;5860;52.018;8.536;2023-05-02T13:33:21;12.60;99.90
11609;DHT22;5860;52.018;8.536;2023-05-02T13:35:49;12.40;99.90
11609;DHT22;5860;52.018;8.536;2023-05-02T13:38:16;12.20;99.90
11609;DHT22;5860;52.018;8.536;2023-05-02T13:40:43;12.30;99.90
11609;DHT22;5860;52.018;8.536;2023-05-02T13:43:10;12.00;99.90
11609;DHT22;5860;52.018;8.536;2023-05-02T13:45:37;12.00;99.90
11609;DHT22;5860;52.018;8.536;2023-05-02T13:48:05;11.50;99.90
11609;DHT22;5860;52.018;8.536;2023-05-02T13:50:32;11.50;99.90
11609;DHT22;5860;52.018;8.536;2023-05-02T13:53:02;11.40;99.90
11609;DHT22;5860;52.018;8.536;2023-05-02T13:55:30;11.50;99.90
11609;DHT22;5860;52.018;8.536;2023-05-02T13:57:57;11.70;99.90
11609;DHT22;5860;52.018;8.536;2023-05-02T14:00:24;11.20;99.90
11609;DHT22;5860;52.018;8.536;2023-05-02T14:02:51;11.10;99.90
11609;DHT22;5860;52.018;8.536;2023-05-02T14:05:18;11.30;99.90
11609;DHT22;5860;52.018;8.536;2023-05-02T14:07:45;11.30;99.90
11609;DHT22;5860;52.018;8.536;2023-05-02T14:10:13;11.40;99.90
11609;DHT22;5860;52.018;8.536;2023-05-02T14:12:40;11.20;99.90
11609;DHT22;5860;52.018;8.536;2023-05-02T14:15:07;11.80;99.90
11609;DHT22;5860;52.018;8.536;2023-05-02T14:17:35;11.80;99.90
11609;DHT22;5860;52.018;8.536;2023-05-02T14:20:02;11.50;99.90
11609;DHT22;5860;52.018;8.536;2023-05-02T14:22:29;11.40;99.90
11609;DHT22;5860;52.018;8.536;2023-05-02T14:24:56;11.50;99.90
11609;DHT22;5860;52.018;8.536;2023-05-02T14:27:23;11.40;99.90
11609;DHT22;5860;52.018;8.536;2023-05-02T14:29:51;11.30;99.90
11609;DHT22;5860;52.018;8.536;2023-05-02T14:32:18;11.30;99.90
11609;DHT22;5860;52.018;8.536;2023-05-02T14:34:45;11.20;99.90
11609;DHT22;5860;52.018;8.536;2023-05-02T14:37:12;11.20;99.90
11609;DHT22;5860;52.018;8.536;2023-05-02T14:39:39;11.10;99.90
11609;DHT22;5860;52.018;8.536;2023-05-02T14:42:08;11.70;99.90
11609;DHT22;5860;52.018;8.536;2023-05-02T14:44:35;11.70;99.90
11609;DHT22;5860;52.018;8.536;2023-05-02T14:47:02;11.50;99.90
11609;DHT22;5860;52.018;8.536;2023-05-02T14:49:29;11.20;99.90
11609;DHT22;5860;52.018;8.536;2023-05-02T14:51:57;11.50;99.90
11609;DHT22;5860;52.018;8.536;2023-05-02T14:54:27;11.40;99.90
11609;DHT22;5860;52.018;8.536;2023-05-02T14:56:56;11.60;99.90
11609;DHT22;5860;52.018;8.536;2023-05-02T14:59:29;11.70;99.90
11609;DHT22;5860;52.018;8.536;2023-05-02T15:01:56;11.80;99.90
11609;DHT22;5860;52.018;8.536;2023-05-02T15:04:24;11.80;99.90
11609;DHT22;5860;52.018;8.536;2023-05-02T15:06:53;11.70;99.90
11609;DHT22;5860;52.018;8.536;2023-05-02T15:09:21;11.40;99.90
11609;DHT22;5860;52.018;8.536;2023-05-02T15:11:52;11.60;99.90
11609;DHT22;5860;52.018;8.536;2023-05-02T15:14:19;11.60;99.90
11609;DHT22;5860;52.018;8.536;2023-05-02T15:16:46;11.60;99.90
11609;DHT22;5860;52.018;8.536;2023-05-02T15:19:14;11.70;99.90
11609;DHT22;5860;52.018;8.536;2023-05-02T15:21:41;11.60;99.90
11609;DHT22;5860;52.018;8.536;2023-05-02T15:24:08;11.70;99.90
11609;DHT22;5860;52.018;8.536;2023-05-02T15:26:36;11.30;99.90
11609;DHT22;5860;52.018;8.536;2023-05-02T15:29:06;11.40;99.90
11609;DHT22;5860;52.018;8.536;2023-05-02T15:31:33;11.40;99.90
11609;DHT22;5860;52.018;8.536;2023-05-02T15:34:00;11.30;99.90
11609;DHT22;5860;52.018;8.536;2023-05-02T15:36:27;11.00;99.90
11609;DHT22;5860;52.018;8.536;2023-05-02T15:38:55;11.20;99.90
11609;DHT22;5860;52.018;8.536;2023-05-02T15:41:24;11.40;99.90
11609;DHT22;5860;52.018;8.536;2023-05-02T15:43:53;11.60;99.90
11609;DHT22;5860;52.018;8.536;2023-05-02T15:46:20;11.60;99.90
11609;DHT22;5860;52.018;8.536;2023-05-02T15:48:47;11.50;99.90
11609;DHT22;5860;52.018;8.536;2023-05-02T15:51:14;11.50;99.90
11609;DHT22;5860;52.018;8.536;2023-05-02T15:53:42;11.80;99.90
11609;DHT22;5860;52.018;8.536;2023-05-02T15:56:11;11.90;99.90
11609;DHT22;5860;52.018;8.536;2023-05-02T15:58:38;11.50;99.90
11609;DHT22;5860;52.018;8.536;2023-05-02T16:01:05;11.50;99.90
11609;DHT22;5860;52.018;8.536;2023-05-02T16:03:33;11.40;99.90
11609;DHT22;5860;52.018;8.536;2023-05-02T16:06:00;11.50;99.90
11609;DHT22;5860;52.018;8.536;2023-05-02T16:08:27;11.40;99.90
11609;DHT22;5860;52.018;8.536;2023-05-02T16:10:55;11.50;99.90
11609;DHT22;5860;52.018;8.536;2023-05-02T16:13:23;11.50;99.90
11609;DHT22;5860;52.018;8.536;2023-05-02T16:15:51;11.20;99.90
11609;DHT22;5860;52.018;8.536;2023-05-02T16:18:18;11.20;99.90
11609;DHT22;5860;52.018;8.536;2023-05-02T16:20:46;10.90;99.90
11609;DHT22;5860;52.018;8.536;2023-05-02T16:23:15;10.80;99.90
11609;DHT22;5860;52.018;8.536;2023-05-02T16:25:44;10.90;99.90
11609;DHT22;5860;52.018;8.536;2023-05-02T16:28:10;10.90;99.90
11609;DHT22;5860;52.018;8.536;2023-05-02T16:30:37;10.80;99.90
11609;DHT22;5860;52.018;8.536;2023-05-02T16:33:04;11.10;99.90
11609;DHT22;5860;52.018;8.536;2023-05-02T16:35:31;11.30;99.90
11609;DHT22;5860;52.018;8.536;2023-05-02T16:37:59;11.10;99.90
11609;DHT22;5860;52.018;8.536;2023-05-02T16:40:26;11.00;99.90
11609;DHT22;5860;52.018;8.536;2023-05-02T16:42:54;10.80;99.90
11609;DHT22;5860;52.018;8.536;2023-05-02T16:45:23;10.70;99.90